createdAt,value
2023-03-19T00:00:54.480Z,66.28
2023-03-19T00:03:43.038Z,64.65
2023-03-19T00:06:16.017Z,66.88
2023-03-19T00:08:44.458Z,65.30
2023-03-19T00:11:14.275Z,62.50
2023-03-19T00:13:43.236Z,63.45
2023-03-19T00:16:12.209Z,63.13
2023-03-19T00:18:40.747Z,64.50
2023-03-19T00:21:10.593Z,64.20
2023-03-19T00:23:39.352Z,64.20
2023-03-19T00:26:08.930Z,63.33
2023-03-19T00:28:38.251Z,65.45
2023-03-19T00:31:12.398Z,62.67
2023-03-19T00:33:41.090Z,69.13
2023-03-19T00:36:11.496Z,63.83
2023-03-19T00:38:39.885Z,64.93
2023-03-19T00:41:09.161Z,64.55
2023-03-19T00:43:45.070Z,65.15
2023-03-19T00:46:15.135Z,62.28
2023-03-19T00:48:45.670Z,63.97
2023-03-19T00:51:14.573Z,64.45
2023-03-19T00:53:44.540Z,65.25
2023-03-19T00:56:16.034Z,59.45
2023-03-19T00:58:45.668Z,57.78
2023-03-19T01:01:17.512Z,58.97
2023-03-19T01:03:47.304Z,61.35
2023-03-19T01:06:16.258Z,61.25
2023-03-19T01:08:44.708Z,59.50
2023-03-19T01:11:15.442Z,58.60
2023-03-19T01:13:44.488Z,55.85
2023-03-19T01:16:13.199Z,54.63
2023-03-19T01:18:41.676Z,47.50
2023-03-19T01:21:10.979Z,42.13
2023-03-19T01:23:45.715Z,40.40
2023-03-19T01:26:15.038Z,35.83
2023-03-19T01:28:43.672Z,34.63
2023-03-19T01:31:13.958Z,36.63
2023-03-19T01:34:17.494Z,34.08
2023-03-19T01:36:53.979Z,34.17
2023-03-19T01:39:28.946Z,33.65
2023-03-19T01:42:02.392Z,33.45
2023-03-19T01:44:56.784Z,33.00
2023-03-19T01:47:46.097Z,31.48
2023-03-19T01:50:42.690Z,29.38
2023-03-19T01:53:34.729Z,31.45
2023-03-19T01:56:33.095Z,28.50
2023-03-19T01:59:50.379Z,24.52
2023-03-19T02:02:52.669Z,25.23
2023-03-19T02:05:44.574Z,31.52
2023-03-19T02:08:17.879Z,27.10
2023-03-19T02:10:48.347Z,31.30
2023-03-19T02:13:17.133Z,29.70
2023-03-19T02:15:46.160Z,29.10
2023-03-19T02:18:16.257Z,26.67
2023-03-19T02:21:04.650Z,26.77
2023-03-19T02:23:47.648Z,26.15
2023-03-19T02:26:22.412Z,26.52
2023-03-19T02:28:53.812Z,26.92
2023-03-19T02:31:31.603Z,27.77
2023-03-19T02:34:24.207Z,29.23
2023-03-19T02:37:02.666Z,29.00
2023-03-19T02:39:37.805Z,29.15
2023-03-19T02:42:07.768Z,28.38
2023-03-19T02:44:37.852Z,28.55
2023-03-19T02:47:07.117Z,27.85
2023-03-19T02:49:36.396Z,29.13
2023-03-19T02:52:05.406Z,26.85
2023-03-19T02:54:33.641Z,26.90
2023-03-19T02:57:02.487Z,25.88
2023-03-19T02:59:31.350Z,26.73
2023-03-19T03:02:00.677Z,24.83
2023-03-19T03:04:29.509Z,25.33
2023-03-19T03:06:58.206Z,25.08
2023-03-19T03:09:27.477Z,26.02
2023-03-19T03:14:26.978Z,27.60
2023-03-19T03:16:57.702Z,29.23
2023-03-19T03:19:26.380Z,25.88
2023-03-19T03:21:55.083Z,25.75
2023-03-19T03:24:24.351Z,27.00
2023-03-19T03:26:53.087Z,26.27
2023-03-19T03:29:22.463Z,25.60
2023-03-19T03:31:51.454Z,24.77
2023-03-19T03:34:19.734Z,26.55
2023-03-19T03:36:48.535Z,24.10
2023-03-19T03:39:17.027Z,24.58
2023-03-19T03:41:45.966Z,24.73
2023-03-19T03:44:14.559Z,25.20
2023-03-19T03:46:43.628Z,23.80
2023-03-19T03:49:12.662Z,24.35
2023-03-19T03:51:42.547Z,23.70
2023-03-19T03:54:11.269Z,30.20
2023-03-19T03:56:40.057Z,26.95
2023-03-19T03:59:09.568Z,24.52
2023-03-19T04:01:38.436Z,23.90
2023-03-19T04:04:07.186Z,26.30
2023-03-19T04:06:36.482Z,27.05
2023-03-19T04:09:14.909Z,26.83
2023-03-19T04:11:43.918Z,26.70
2023-03-19T04:14:12.574Z,27.02
2023-03-19T04:16:44.317Z,24.58
2023-03-19T04:19:13.218Z,24.47
2023-03-19T04:21:42.087Z,25.50
2023-03-19T04:24:11.082Z,25.25
2023-03-19T04:26:40.782Z,24.85
2023-03-19T04:29:09.614Z,24.98
2023-03-19T04:31:39.036Z,24.80
2023-03-19T04:34:07.578Z,26.55
2023-03-19T04:36:36.868Z,26.02
2023-03-19T04:39:06.302Z,27.42
2023-03-19T04:41:35.736Z,30.38
2023-03-19T04:44:24.275Z,31.25
2023-03-19T04:46:52.989Z,29.55
2023-03-19T04:49:24.646Z,28.58
2023-03-19T04:51:54.151Z,29.67
2023-03-19T04:54:22.708Z,29.77
2023-03-19T04:56:52.420Z,30.67
2023-03-19T04:59:23.317Z,29.33
2023-03-19T05:01:52.455Z,29.30
2023-03-19T05:04:24.168Z,29.00
2023-03-19T05:06:55.855Z,31.92
2023-03-19T05:09:24.964Z,30.80
2023-03-19T05:11:54.048Z,29.23
2023-03-19T05:14:23.914Z,29.00
2023-03-19T05:17:11.637Z,29.20
2023-03-19T05:20:06.317Z,27.95
2023-03-19T05:22:37.159Z,28.53
2023-03-19T05:25:07.115Z,27.80
2023-03-19T05:27:36.615Z,28.20
2023-03-19T05:30:12.588Z,28.55
2023-03-19T05:33:03.728Z,26.60
2023-03-19T05:35:37.730Z,27.80
2023-03-19T05:38:12.603Z,27.90
2023-03-19T05:40:43.854Z,27.73
2023-03-19T05:43:27.603Z,28.35
2023-03-19T05:45:57.027Z,26.67
2023-03-19T05:48:30.638Z,26.30
2023-03-19T05:50:59.564Z,26.92
2023-03-19T05:53:34.253Z,26.33
2023-03-19T05:56:22.109Z,25.55
2023-03-19T05:59:10.765Z,25.02
2023-03-19T06:01:44.249Z,26.23
2023-03-19T06:04:13.118Z,28.02
2023-03-19T06:06:41.567Z,28.23
2023-03-19T06:09:10.668Z,26.13
2023-03-19T06:11:43.085Z,29.27
2023-03-19T06:14:48.231Z,28.30
2023-03-19T06:20:13.111Z,31.85
2023-03-19T06:22:44.109Z,33.20
2023-03-19T06:25:13.173Z,36.40
2023-03-19T06:27:42.962Z,36.67
2023-03-19T06:30:26.996Z,38.05
2023-03-19T06:32:57.454Z,37.40
2023-03-19T06:35:26.378Z,35.92
2023-03-19T06:37:56.383Z,35.80
2023-03-19T06:40:25.675Z,37.40
2023-03-19T06:42:54.065Z,44.35
2023-03-19T06:45:23.302Z,54.25
2023-03-19T06:47:53.548Z,68.47
2023-03-19T06:50:22.491Z,58.65
2023-03-19T06:52:50.929Z,50.47
2023-03-19T06:55:20.854Z,41.50
2023-03-19T06:57:50.815Z,37.17
2023-03-19T07:00:20.903Z,36.45
2023-03-19T07:02:49.332Z,37.30
2023-03-19T07:05:18.513Z,42.50
2023-03-19T07:07:46.898Z,38.80
2023-03-19T07:10:20.603Z,35.47
2023-03-19T07:12:49.009Z,31.85
2023-03-19T07:15:20.162Z,30.77
2023-03-19T07:17:49.072Z,31.80
2023-03-19T07:20:19.346Z,30.10
2023-03-19T07:22:47.641Z,31.25
2023-03-19T07:25:16.733Z,31.63
2023-03-19T07:27:47.268Z,34.25
2023-03-19T07:30:16.485Z,35.08
2023-03-19T07:32:45.682Z,33.95
2023-03-19T07:35:14.587Z,34.55
2023-03-19T07:37:43.159Z,31.33
2023-03-19T07:40:12.398Z,30.23
2023-03-19T07:42:41.885Z,31.42
2023-03-19T07:45:11.804Z,34.40
2023-03-19T07:47:40.533Z,51.72
2023-03-19T07:50:10.040Z,34.90
2023-03-19T07:52:38.378Z,31.92
2023-03-19T07:55:07.315Z,32.15
2023-03-19T07:57:36.672Z,32.15
2023-03-19T08:00:06.260Z,32.95
2023-03-19T08:02:43.001Z,32.67
2023-03-19T08:05:12.107Z,34.97
2023-03-19T08:07:40.568Z,34.60
2023-03-19T08:10:10.275Z,36.10
2023-03-19T08:12:41.435Z,36.15
2023-03-19T08:15:12.036Z,35.67
2023-03-19T08:17:40.993Z,35.35
2023-03-19T08:23:21.026Z,34.35
2023-03-19T08:25:53.733Z,39.63
2023-03-19T08:28:22.256Z,34.42
2023-03-19T08:30:51.159Z,32.60
2023-03-19T08:33:19.634Z,32.65
2023-03-19T08:35:48.738Z,33.22
2023-03-19T08:38:17.582Z,32.22
2023-03-19T08:40:46.320Z,33.33
2023-03-19T08:43:14.941Z,33.90
2023-03-19T08:45:43.794Z,33.75
2023-03-19T08:48:12.114Z,32.17
2023-03-19T08:50:41.060Z,33.85
2023-03-19T08:53:09.489Z,31.98
2023-03-19T08:56:05.413Z,31.80
2023-03-19T08:58:40.739Z,31.33
2023-03-19T09:01:15.889Z,33.45
2023-03-19T09:03:53.399Z,33.45
2023-03-19T09:06:23.565Z,32.45
2023-03-19T09:08:52.069Z,30.52
2023-03-19T09:11:20.714Z,33.50
2023-03-19T09:13:49.880Z,37.28
2023-03-19T09:16:26.163Z,36.63
2023-03-19T09:18:54.998Z,36.00
2023-03-19T09:21:49.146Z,35.60
2023-03-19T09:24:42.920Z,33.40
2023-03-19T09:27:12.168Z,32.42
2023-03-19T09:29:41.864Z,32.65
2023-03-19T09:32:10.561Z,30.67
2023-03-19T09:34:39.226Z,30.75
2023-03-19T09:37:38.685Z,32.65
2023-03-19T09:40:08.674Z,31.67
2023-03-19T09:43:03.105Z,31.05
2023-03-19T09:45:57.547Z,30.15
2023-03-19T09:48:48.799Z,30.83
2023-03-19T09:51:50.186Z,28.85
2023-03-19T09:54:37.213Z,28.50
2023-03-19T09:57:10.083Z,27.90
2023-03-19T09:59:39.797Z,28.88
2023-03-19T10:02:38.217Z,28.27
2023-03-19T10:05:31.054Z,27.20
2023-03-19T10:08:49.469Z,27.73
2023-03-19T10:11:38.109Z,27.98
2023-03-19T10:14:37.912Z,28.85
2023-03-19T10:17:10.407Z,29.00
2023-03-19T10:19:45.815Z,27.98
2023-03-19T10:23:04.603Z,27.90
2023-03-19T10:25:34.320Z,27.75
2023-03-19T10:28:15.003Z,27.70
2023-03-19T10:30:53.897Z,26.25
2023-03-19T10:33:26.529Z,26.20
2023-03-19T10:36:11.783Z,26.27
2023-03-19T10:38:43.592Z,25.90
2023-03-19T10:41:19.245Z,18.40
2023-03-19T10:43:53.766Z,18.45
2023-03-19T10:46:22.207Z,18.60
2023-03-19T10:48:51.731Z,18.50
2023-03-19T10:51:26.314Z,18.48
2023-03-19T10:53:57.406Z,19.58
2023-03-19T10:56:34.078Z,19.52
2023-03-19T10:59:21.115Z,19.75
2023-03-19T11:01:49.552Z,19.25
2023-03-19T11:04:22.228Z,18.30
2023-03-19T11:06:53.084Z,18.60
2023-03-19T11:09:38.243Z,16.88
2023-03-19T11:12:26.752Z,17.23
2023-03-19T11:14:58.386Z,17.45
2023-03-19T11:17:45.771Z,17.30
2023-03-19T11:20:23.848Z,18.27
2023-03-19T11:22:53.660Z,17.90
2023-03-19T11:25:29.918Z,17.30
2023-03-19T11:28:16.866Z,18.00
2023-03-19T11:31:05.433Z,17.33
2023-03-19T11:33:53.813Z,17.08
2023-03-19T11:36:39.404Z,17.48
2023-03-19T11:39:29.135Z,16.48
2023-03-19T11:42:27.082Z,16.40
2023-03-19T11:45:25.069Z,17.50
2023-03-19T11:48:52.224Z,17.60
2023-03-19T11:51:32.901Z,18.73
2023-03-19T11:54:19.746Z,16.48
2023-03-19T11:56:57.598Z,18.00
2023-03-19T11:59:29.293Z,18.15
2023-03-19T12:02:55.744Z,18.27
2023-03-19T12:05:42.698Z,18.30
2023-03-19T12:08:23.831Z,20.45
2023-03-19T12:11:07.421Z,18.90
2023-03-19T12:13:41.046Z,18.90
2023-03-19T12:16:49.545Z,19.52
2023-03-19T12:19:35.368Z,20.25
2023-03-19T12:22:19.984Z,22.60
2023-03-19T12:25:06.930Z,22.55
2023-03-19T12:27:53.729Z,22.83
2023-03-19T12:30:49.723Z,22.77
2023-03-19T12:33:30.926Z,22.85
2023-03-19T12:36:00.438Z,23.95
2023-03-19T12:38:42.124Z,22.20
2023-03-19T12:41:23.161Z,23.08
2023-03-19T12:44:05.585Z,22.67
2023-03-19T12:49:28.425Z,23.08
2023-03-19T12:52:08.608Z,24.10
2023-03-19T12:54:42.245Z,23.98
2023-03-19T12:57:34.190Z,24.35
2023-03-19T13:00:16.627Z,23.83
2023-03-19T13:02:56.553Z,23.55
2023-03-19T13:05:41.734Z,25.55
2023-03-19T13:08:27.798Z,25.00
2023-03-19T13:11:00.579Z,24.27
2023-03-19T13:13:33.673Z,24.58
2023-03-19T13:16:51.748Z,23.92
2023-03-19T13:19:40.552Z,23.95
2023-03-19T13:22:16.810Z,24.40
2023-03-19T13:24:49.122Z,23.63
2023-03-19T13:27:31.650Z,24.13
2023-03-19T13:30:15.159Z,25.13
2023-03-19T13:32:54.704Z,24.63
2023-03-19T13:35:38.919Z,23.33
2023-03-19T13:38:26.464Z,22.75
2023-03-19T13:40:59.878Z,23.02
2023-03-19T13:43:29.345Z,22.67
2023-03-19T13:46:13.389Z,22.60
2023-03-19T13:48:45.508Z,21.85
2023-03-19T13:54:11.844Z,21.60
2023-03-19T13:57:01.291Z,21.83
2023-03-19T13:59:36.438Z,22.67
2023-03-19T14:02:25.669Z,21.60
2023-03-19T14:23:36.237Z,21.85
2023-03-19T14:26:19.266Z,22.45
2023-03-19T14:28:55.355Z,21.15
2023-03-19T14:31:33.950Z,24.27
2023-03-19T14:34:04.943Z,20.67
2023-03-19T14:37:03.710Z,21.95
2023-03-19T14:39:41.211Z,21.90
2023-03-19T14:42:38.293Z,21.27
2023-03-19T14:45:44.468Z,22.77
2023-03-19T14:48:36.209Z,20.95
2023-03-19T14:51:32.600Z,22.48
2023-03-19T14:54:34.157Z,21.40
2023-03-19T14:57:29.967Z,21.25
2023-03-19T14:59:59.829Z,21.77
2023-03-19T15:02:38.373Z,20.92
2023-03-19T15:05:10.689Z,20.83
2023-03-19T15:07:44.544Z,24.23
2023-03-19T15:10:28.183Z,22.75
2023-03-19T15:13:32.789Z,21.63
2023-03-19T15:16:49.573Z,22.20
2023-03-19T15:19:30.368Z,20.98
2023-03-19T15:22:12.553Z,20.95
2023-03-19T15:24:51.210Z,21.58
2023-03-19T15:27:26.021Z,20.75
2023-03-19T15:30:02.078Z,21.42
2023-03-19T15:33:14.113Z,21.25
2023-03-19T15:36:27.704Z,21.75
2023-03-19T15:39:10.568Z,24.08
2023-03-19T15:41:47.625Z,24.42
2023-03-19T15:44:49.444Z,25.73
2023-03-19T15:47:27.748Z,26.85
2023-03-19T15:50:26.080Z,27.05
2023-03-19T15:53:05.781Z,27.83
2023-03-19T15:55:55.790Z,23.88
2023-03-19T15:59:14.232Z,22.63
2023-03-19T16:01:46.098Z,21.55
2023-03-19T16:04:22.169Z,19.67
2023-03-19T16:06:52.423Z,20.58
2023-03-19T16:09:27.368Z,20.40
2023-03-19T16:11:57.325Z,19.55
2023-03-19T16:14:42.343Z,20.50
2023-03-19T16:17:14.787Z,20.55
2023-03-19T16:19:56.559Z,20.30
2023-03-19T16:22:33.355Z,21.15
2023-03-19T16:25:06.957Z,28.17
2023-03-19T16:27:41.255Z,34.10
2023-03-19T16:30:26.724Z,35.55
2023-03-19T16:33:04.223Z,31.25
2023-03-19T16:35:34.835Z,28.63
2023-03-19T16:42:56.312Z,26.38
2023-03-19T16:45:30.706Z,26.33
2023-03-19T16:48:05.460Z,35.72
2023-03-19T16:50:41.591Z,38.95
2023-03-19T16:53:25.431Z,37.90
2023-03-19T16:55:56.363Z,39.83
2023-03-19T16:58:35.108Z,38.17
2023-03-19T17:01:17.189Z,33.15
2023-03-19T17:03:47.312Z,25.17
2023-03-19T17:06:17.696Z,25.15
2023-03-19T17:08:49.205Z,26.08
2023-03-19T17:11:31.274Z,24.75
2023-03-19T17:13:59.760Z,25.60
2023-03-19T17:16:34.779Z,24.38
2023-03-19T17:19:07.444Z,25.73
2023-03-19T17:21:36.284Z,26.52
2023-03-19T17:24:29.623Z,26.42
2023-03-19T17:27:00.888Z,26.65
2023-03-19T17:29:30.600Z,24.27
2023-03-19T17:32:04.387Z,24.08
2023-03-19T17:34:33.150Z,24.50
2023-03-19T17:37:04.490Z,26.40
2023-03-19T17:39:34.389Z,25.67
2023-03-19T17:42:03.049Z,26.98
2023-03-19T17:44:31.746Z,27.50
2023-03-19T17:47:00.897Z,26.80
2023-03-19T17:49:32.492Z,25.05
2023-03-19T17:52:01.486Z,25.00
2023-03-19T17:54:30.154Z,28.60
2023-03-19T17:56:58.905Z,27.20
2023-03-19T17:59:27.221Z,26.90
2023-03-19T18:01:56.152Z,26.40
2023-03-19T18:04:24.888Z,26.70
2023-03-19T18:06:56.494Z,26.65
2023-03-19T18:09:28.694Z,26.58
2023-03-19T18:11:58.670Z,28.17
2023-03-19T18:14:29.996Z,30.45
2023-03-19T18:16:58.731Z,34.17
2023-03-19T18:19:38.673Z,37.15
2023-03-19T18:22:14.913Z,40.53
2023-03-19T18:24:46.507Z,43.05
2023-03-19T18:27:16.037Z,40.87
2023-03-19T18:29:44.948Z,41.28
2023-03-19T18:32:46.424Z,44.00
2023-03-19T18:36:37.944Z,48.50
2023-03-19T18:38:34.301Z,53.45
2023-03-19T18:41:33.894Z,54.70
2023-03-19T18:44:21.869Z,55.60
2023-03-19T18:50:42.113Z,47.22
2023-03-19T18:56:34.722Z,55.33
2023-03-19T18:59:11.557Z,55.20
2023-03-19T19:01:40.769Z,64.80
2023-03-19T19:04:41.379Z,63.90
2023-03-19T19:07:16.506Z,62.20
2023-03-19T19:09:50.079Z,64.82
2023-03-19T19:12:20.870Z,99.18
2023-03-19T19:14:53.297Z,105.30
2023-03-19T19:17:29.357Z,111.13
2023-03-19T19:20:00.889Z,119.53
2023-03-19T19:22:30.049Z,111.03
2023-03-19T19:24:59.096Z,94.32
2023-03-19T19:27:30.443Z,98.50
2023-03-19T19:30:01.439Z,107.82
2023-03-19T19:32:31.049Z,95.85
2023-03-19T19:34:59.991Z,104.85
2023-03-19T19:37:30.701Z,98.43
2023-03-19T19:40:00.884Z,102.93
2023-03-19T19:42:29.947Z,103.82
2023-03-19T19:45:03.525Z,101.95
2023-03-19T19:47:42.617Z,100.95
2023-03-19T19:50:39.083Z,98.30
2023-03-19T19:53:08.028Z,91.07
2023-03-19T19:56:16.922Z,87.50
2023-03-19T19:58:55.779Z,99.18
2023-03-19T20:01:34.089Z,109.50
2023-03-19T20:04:14.870Z,102.18
2023-03-19T20:06:49.177Z,81.60
2023-03-19T20:09:19.944Z,73.88
2023-03-19T20:11:48.927Z,71.80
2023-03-19T20:14:25.032Z,62.80
2023-03-19T20:17:58.866Z,72.15
2023-03-19T20:20:33.687Z,63.40
2023-03-19T20:23:18.983Z,57.80
2023-03-19T20:26:27.609Z,53.75
2023-03-19T20:29:49.344Z,51.05
2023-03-19T20:46:57.949Z,39.53
2023-03-19T21:12:29.008Z,44.50
2023-03-19T21:16:19.356Z,41.75
2023-03-19T21:19:13.920Z,51.50
2023-03-19T21:22:26.981Z,62.05
2023-03-19T21:25:05.016Z,56.35
2023-03-19T21:28:50.335Z,73.88
2023-03-19T21:32:13.030Z,62.53
2023-03-19T21:35:31.829Z,55.33
2023-03-19T21:38:05.164Z,50.83
2023-03-19T21:40:33.568Z,49.35
2023-03-19T21:43:03.601Z,42.17
2023-03-19T21:45:35.865Z,40.65
2023-03-19T21:48:26.413Z,41.67
2023-03-19T21:50:55.086Z,38.05
2023-03-19T21:53:25.255Z,37.00
2023-03-19T21:55:56.319Z,37.92
2023-03-19T21:58:36.421Z,40.15
2023-03-19T22:01:05.025Z,36.38
2023-03-19T22:03:34.444Z,38.88
2023-03-19T22:06:02.739Z,40.80
2023-03-19T22:08:32.400Z,42.10
2023-03-19T22:11:02.010Z,43.60
2023-03-19T22:13:35.763Z,41.17
2023-03-19T22:16:04.617Z,43.17
2023-03-19T22:18:33.395Z,43.47
2023-03-19T22:21:02.432Z,45.85
2023-03-19T22:23:31.120Z,41.50
2023-03-19T22:25:59.431Z,43.65
2023-03-19T22:28:34.998Z,44.10
2023-03-19T22:31:04.430Z,48.05
2023-03-19T22:33:33.391Z,45.60
2023-03-19T22:36:02.595Z,51.10
2023-03-19T22:38:33.365Z,51.42
2023-03-19T22:41:01.838Z,52.70
2023-03-19T22:43:35.393Z,53.60
2023-03-19T22:46:08.108Z,54.10
2023-03-19T22:48:38.763Z,56.75
2023-03-19T22:51:07.502Z,52.42
2023-03-19T22:53:38.425Z,53.95
2023-03-19T22:56:10.425Z,51.78
2023-03-19T22:58:39.214Z,51.92
2023-03-19T23:01:36.450Z,49.83
2023-03-19T23:04:41.100Z,47.08
2023-03-19T23:07:14.532Z,44.08
2023-03-19T23:09:44.536Z,41.95
2023-03-19T23:12:13.748Z,44.63
2023-03-19T23:14:42.719Z,47.50
2023-03-19T23:17:19.801Z,46.53
2023-03-19T23:19:48.919Z,41.25
2023-03-19T23:22:17.504Z,42.17
2023-03-19T23:24:46.282Z,41.97
2023-03-19T23:27:32.551Z,42.88
2023-03-19T23:30:01.500Z,42.78
2023-03-19T23:32:29.948Z,43.35
2023-03-19T23:35:01.593Z,43.53
2023-03-19T23:37:30.277Z,42.22
2023-03-19T23:39:59.002Z,43.40
2023-03-19T23:42:31.415Z,44.35
2023-03-19T23:45:04.504Z,41.47
2023-03-19T23:47:33.736Z,41.80
2023-03-19T23:50:02.528Z,41.70
2023-03-19T23:52:30.896Z,41.95
2023-03-19T23:54:59.806Z,41.83
2023-03-19T23:57:28.121Z,40.53
2023-03-19T23:59:57.596Z,39.72
